sensor_id;sensor_type;location;lat;lon;timestamp;pressure;altitude;pressure_sealevel;temperature
16956;BMP180;8594;52.052;8.354;2023-07-31T00:01:59;100067.00;;;19.70
16956;BMP180;8594;52.052;8.354;2023-07-31T00:04:26;100063.00;;;19.60
16956;BMP180;8594;52.052;8.354;2023-07-31T00:06:53;100063.00;;;19.50
16956;BMP180;8594;52.052;8.354;2023-07-31T00:09:20;100060.00;;;19.60
16956;BMP180;8594;52.052;8.354;2023-07-31T00:11:47;100055.00;;;19.60
16956;BMP180;8594;52.052;8.354;2023-07-31T00:14:13;100053.00;;;19.60
16956;BMP180;8594;52.052;8.354;2023-07-31T00:16:40;100056.00;;;19.70
16956;BMP180;8594;52.052;8.354;2023-07-31T00:19:08;100048.00;;;19.50
16956;BMP180;8594;52.052;8.354;2023-07-31T00:21:35;100044.00;;;19.80
16956;BMP180;8594;52.052;8.354;2023-07-31T00:24:02;100047.00;;;19.80
16956;BMP180;8594;52.052;8.354;2023-07-31T00:26:29;100051.00;;;19.90
16956;BMP180;8594;52.052;8.354;2023-07-31T00:28:56;100050.00;;;19.70
16956;BMP180;8594;52.052;8.354;2023-07-31T00:31:23;100045.00;;;19.60
16956;BMP180;8594;52.052;8.354;2023-07-31T00:33:49;100049.00;;;19.70
16956;BMP180;8594;52.052;8.354;2023-07-31T00:36:17;100046.00;;;19.40
16956;BMP180;8594;52.052;8.354;2023-07-31T00:38:44;100050.00;;;19.30
16956;BMP180;8594;52.052;8.354;2023-07-31T00:41:11;100043.00;;;19.60
16956;BMP180;8594;52.052;8.354;2023-07-31T00:43:38;100044.00;;;19.90
16956;BMP180;8594;52.052;8.354;2023-07-31T00:46:05;100048.00;;;19.70
16956;BMP180;8594;52.052;8.354;2023-07-31T00:48:35;100048.00;;;19.70
16956;BMP180;8594;52.052;8.354;2023-07-31T00:51:02;100039.00;;;19.60
16956;BMP180;8594;52.052;8.354;2023-07-31T00:53:30;100040.00;;;19.90
16956;BMP180;8594;52.052;8.354;2023-07-31T00:55:58;100037.00;;;19.90
16956;BMP180;8594;52.052;8.354;2023-07-31T00:58:25;100036.00;;;19.60
16956;BMP180;8594;52.052;8.354;2023-07-31T01:00:52;100036.00;;;19.60
16956;BMP180;8594;52.052;8.354;2023-07-31T01:03:19;100031.00;;;19.50
16956;BMP180;8594;52.052;8.354;2023-07-31T01:05:57;100024.00;;;19.40
16956;BMP180;8594;52.052;8.354;2023-07-31T01:08:37;100022.00;;;19.50
16956;BMP180;8594;52.052;8.354;2023-07-31T01:11:15;100026.00;;;19.60
16956;BMP180;8594;52.052;8.354;2023-07-31T01:13:44;100031.00;;;19.40
16956;BMP180;8594;52.052;8.354;2023-07-31T01:16:11;100026.00;;;19.30
16956;BMP180;8594;52.052;8.354;2023-07-31T01:18:38;100019.00;;;19.50
16956;BMP180;8594;52.052;8.354;2023-07-31T01:21:22;100012.00;;;19.50
16956;BMP180;8594;52.052;8.354;2023-07-31T01:24:28;100011.00;;;19.50
16956;BMP180;8594;52.052;8.354;2023-07-31T01:27:06;100011.00;;;19.30
16956;BMP180;8594;52.052;8.354;2023-07-31T01:29:43;100012.00;;;19.00
16956;BMP180;8594;52.052;8.354;2023-07-31T01:32:11;100010.00;;;19.00
16956;BMP180;8594;52.052;8.354;2023-07-31T01:34:41;100009.00;;;19.10
16956;BMP180;8594;52.052;8.354;2023-07-31T01:37:08;100017.00;;;18.90
16956;BMP180;8594;52.052;8.354;2023-07-31T01:39:35;100003.00;;;18.80
16956;BMP180;8594;52.052;8.354;2023-07-31T01:42:04;100006.00;;;19.00
16956;BMP180;8594;52.052;8.354;2023-07-31T01:44:31;99999.00;;;18.70
16956;BMP180;8594;52.052;8.354;2023-07-31T01:46:58;99997.00;;;18.90
16956;BMP180;8594;52.052;8.354;2023-07-31T01:49:26;99998.00;;;18.60
16956;BMP180;8594;52.052;8.354;2023-07-31T01:51:52;99997.00;;;18.80
16956;BMP180;8594;52.052;8.354;2023-07-31T01:54:19;99992.00;;;18.60
16956;BMP180;8594;52.052;8.354;2023-07-31T01:56:46;99989.00;;;18.70
16956;BMP180;8594;52.052;8.354;2023-07-31T01:59:14;99991.00;;;18.50
16956;BMP180;8594;52.052;8.354;2023-07-31T02:01:41;99985.00;;;18.70
16956;BMP180;8594;52.052;8.354;2023-07-31T02:04:08;99980.00;;;18.70
16956;BMP180;8594;52.052;8.354;2023-07-31T02:06:35;99975.00;;;19.00
16956;BMP180;8594;52.052;8.354;2023-07-31T02:09:02;99970.00;;;18.80
16956;BMP180;8594;52.052;8.354;2023-07-31T02:11:29;99972.00;;;18.80
16956;BMP180;8594;52.052;8.354;2023-07-31T02:13:56;99966.00;;;18.60
16956;BMP180;8594;52.052;8.354;2023-07-31T02:16:24;99970.00;;;18.50
16956;BMP180;8594;52.052;8.354;2023-07-31T02:18:50;99970.00;;;18.80
16956;BMP180;8594;52.052;8.354;2023-07-31T02:21:17;99968.00;;;18.70
16956;BMP180;8594;52.052;8.354;2023-07-31T02:23:44;99963.00;;;18.50
16956;BMP180;8594;52.052;8.354;2023-07-31T02:26:11;99957.00;;;18.60
16956;BMP180;8594;52.052;8.354;2023-07-31T02:28:38;99958.00;;;18.60
16956;BMP180;8594;52.052;8.354;2023-07-31T02:31:05;99955.00;;;18.50
16956;BMP180;8594;52.052;8.354;2023-07-31T02:33:33;99957.00;;;18.50
16956;BMP180;8594;52.052;8.354;2023-07-31T02:36:00;99948.00;;;18.50
16956;BMP180;8594;52.052;8.354;2023-07-31T02:38:26;99961.00;;;18.50
16956;BMP180;8594;52.052;8.354;2023-07-31T02:40:53;99949.00;;;18.30
16956;BMP180;8594;52.052;8.354;2023-07-31T02:43:20;99949.00;;;18.40
16956;BMP180;8594;52.052;8.354;2023-07-31T02:45:51;99953.00;;;18.50
16956;BMP180;8594;52.052;8.354;2023-07-31T02:48:18;99953.00;;;18.50
16956;BMP180;8594;52.052;8.354;2023-07-31T02:50:48;99948.00;;;18.40
16956;BMP180;8594;52.052;8.354;2023-07-31T02:53:14;99946.00;;;18.60
16956;BMP180;8594;52.052;8.354;2023-07-31T02:55:41;99950.00;;;18.60
16956;BMP180;8594;52.052;8.354;2023-07-31T02:58:08;99941.00;;;18.60
16956;BMP180;8594;52.052;8.354;2023-07-31T03:00:35;99943.00;;;18.60
16956;BMP180;8594;52.052;8.354;2023-07-31T03:03:02;99935.00;;;18.70
16956;BMP180;8594;52.052;8.354;2023-07-31T03:05:29;99945.00;;;18.50
16956;BMP180;8594;52.052;8.354;2023-07-31T03:07:57;99943.00;;;18.50
16956;BMP180;8594;52.052;8.354;2023-07-31T03:10:24;99940.00;;;18.40
16956;BMP180;8594;52.052;8.354;2023-07-31T03:12:51;99945.00;;;18.30
16956;BMP180;8594;52.052;8.354;2023-07-31T03:15:17;99935.00;;;18.00
16956;BMP180;8594;52.052;8.354;2023-07-31T03:17:44;99937.00;;;18.20
16956;BMP180;8594;52.052;8.354;2023-07-31T03:20:11;99936.00;;;18.40
16956;BMP180;8594;52.052;8.354;2023-07-31T03:22:38;99938.00;;;18.30
16956;BMP180;8594;52.052;8.354;2023-07-31T03:25:08;99932.00;;;18.40
16956;BMP180;8594;52.052;8.354;2023-07-31T03:27:36;99932.00;;;18.60
16956;BMP180;8594;52.052;8.354;2023-07-31T03:30:03;99922.00;;;18.70
16956;BMP180;8594;52.052;8.354;2023-07-31T03:32:30;99926.00;;;18.70
16956;BMP180;8594;52.052;8.354;2023-07-31T03:34:57;99924.00;;;18.80
16956;BMP180;8594;52.052;8.354;2023-07-31T03:37:24;99919.00;;;18.50
16956;BMP180;8594;52.052;8.354;2023-07-31T03:39:51;99923.00;;;18.70
16956;BMP180;8594;52.052;8.354;2023-07-31T03:42:20;99922.00;;;18.80
16956;BMP180;8594;52.052;8.354;2023-07-31T03:44:46;99917.00;;;18.90
16956;BMP180;8594;52.052;8.354;2023-07-31T03:47:13;99923.00;;;19.00
16956;BMP180;8594;52.052;8.354;2023-07-31T03:49:40;99905.00;;;19.00
16956;BMP180;8594;52.052;8.354;2023-07-31T03:52:07;99926.00;;;19.10
16956;BMP180;8594;52.052;8.354;2023-07-31T03:54:34;99918.00;;;19.10
16956;BMP180;8594;52.052;8.354;2023-07-31T03:57:01;99916.00;;;19.10
16956;BMP180;8594;52.052;8.354;2023-07-31T03:59:29;99911.00;;;19.20
16956;BMP180;8594;52.052;8.354;2023-07-31T04:01:56;99915.00;;;19.20
16956;BMP180;8594;52.052;8.354;2023-07-31T04:04:23;99921.00;;;19.20
16956;BMP180;8594;52.052;8.354;2023-07-31T04:06:49;99926.00;;;19.40
16956;BMP180;8594;52.052;8.354;2023-07-31T04:09:17;99922.00;;;19.20
16956;BMP180;8594;52.052;8.354;2023-07-31T04:11:43;99919.00;;;19.10
16956;BMP180;8594;52.052;8.354;2023-07-31T04:14:10;99913.00;;;18.60
16956;BMP180;8594;52.052;8.354;2023-07-31T04:16:38;99921.00;;;19.00
16956;BMP180;8594;52.052;8.354;2023-07-31T04:19:05;99922.00;;;18.90
16956;BMP180;8594;52.052;8.354;2023-07-31T04:21:32;99929.00;;;18.90
16956;BMP180;8594;52.052;8.354;2023-07-31T04:23:59;99916.00;;;19.00
16956;BMP180;8594;52.052;8.354;2023-07-31T04:26:26;99926.00;;;18.60
16956;BMP180;8594;52.052;8.354;2023-07-31T04:28:52;99919.00;;;18.90
16956;BMP180;8594;52.052;8.354;2023-07-31T04:31:19;99915.00;;;19.00
16956;BMP180;8594;52.052;8.354;2023-07-31T04:33:47;99920.00;;;19.10
16956;BMP180;8594;52.052;8.354;2023-07-31T04:36:14;99916.00;;;18.70
16956;BMP180;8594;52.052;8.354;2023-07-31T04:38:41;99919.00;;;18.90
16956;BMP180;8594;52.052;8.354;2023-07-31T04:41:08;99913.00;;;18.80
16956;BMP180;8594;52.052;8.354;2023-07-31T04:43:35;99914.00;;;19.20
16956;BMP180;8594;52.052;8.354;2023-07-31T04:46:04;99918.00;;;19.00
16956;BMP180;8594;52.052;8.354;2023-07-31T04:48:31;99919.00;;;19.00
16956;BMP180;8594;52.052;8.354;2023-07-31T04:51:00;99907.00;;;18.80
16956;BMP180;8594;52.052;8.354;2023-07-31T04:53:26;99913.00;;;19.00
16956;BMP180;8594;52.052;8.354;2023-07-31T04:55:53;99918.00;;;19.00
16956;BMP180;8594;52.052;8.354;2023-07-31T04:58:20;99915.00;;;19.00
16956;BMP180;8594;52.052;8.354;2023-07-31T05:00:47;99918.00;;;19.10
16956;BMP180;8594;52.052;8.354;2023-07-31T05:03:14;99918.00;;;19.10
16956;BMP180;8594;52.052;8.354;2023-07-31T05:05:41;99923.00;;;18.80
16956;BMP180;8594;52.052;8.354;2023-07-31T05:08:09;99916.00;;;18.90
16956;BMP180;8594;52.052;8.354;2023-07-31T05:10:36;99926.00;;;18.80
16956;BMP180;8594;52.052;8.354;2023-07-31T05:13:03;99912.00;;;19.10
16956;BMP180;8594;52.052;8.354;2023-07-31T05:15:31;99922.00;;;19.10
16956;BMP180;8594;52.052;8.354;2023-07-31T05:17:57;99920.00;;;19.40
16956;BMP180;8594;52.052;8.354;2023-07-31T05:20:24;99911.00;;;19.00
16956;BMP180;8594;52.052;8.354;2023-07-31T05:22:51;99914.00;;;18.90
16956;BMP180;8594;52.052;8.354;2023-07-31T05:25:19;99913.00;;;19.20
16956;BMP180;8594;52.052;8.354;2023-07-31T05:27:46;99921.00;;;19.20
16956;BMP180;8594;52.052;8.354;2023-07-31T05:30:13;99919.00;;;18.90
16956;BMP180;8594;52.052;8.354;2023-07-31T05:32:40;99919.00;;;19.20
16956;BMP180;8594;52.052;8.354;2023-07-31T05:35:08;99923.00;;;19.30
16956;BMP180;8594;52.052;8.354;2023-07-31T05:37:34;99918.00;;;19.30
16956;BMP180;8594;52.052;8.354;2023-07-31T05:40:01;99916.00;;;19.40
16956;BMP180;8594;52.052;8.354;2023-07-31T05:42:30;99917.00;;;19.40
16956;BMP180;8594;52.052;8.354;2023-07-31T05:44:56;99919.00;;;18.90
16956;BMP180;8594;52.052;8.354;2023-07-31T05:47:23;99921.00;;;19.00
16956;BMP180;8594;52.052;8.354;2023-07-31T05:49:50;99916.00;;;19.00
16956;BMP180;8594;52.052;8.354;2023-07-31T05:52:18;99909.00;;;19.30
16956;BMP180;8594;52.052;8.354;2023-07-31T05:54:45;99911.00;;;19.30
16956;BMP180;8594;52.052;8.354;2023-07-31T05:57:12;99907.00;;;19.20
16956;BMP180;8594;52.052;8.354;2023-07-31T05:59:40;99909.00;;;18.90
16956;BMP180;8594;52.052;8.354;2023-07-31T06:02:07;99902.00;;;19.20
16956;BMP180;8594;52.052;8.354;2023-07-31T06:04:34;99910.00;;;19.30
16956;BMP180;8594;52.052;8.354;2023-07-31T06:07:01;99903.00;;;19.20
16956;BMP180;8594;52.052;8.354;2023-07-31T06:09:29;99896.00;;;19.30
16956;BMP180;8594;52.052;8.354;2023-07-31T06:11:56;99897.00;;;19.50
16956;BMP180;8594;52.052;8.354;2023-07-31T06:14:23;99899.00;;;19.70
16956;BMP180;8594;52.052;8.354;2023-07-31T06:16:51;99896.00;;;19.30
16956;BMP180;8594;52.052;8.354;2023-07-31T06:19:18;99897.00;;;19.40
16956;BMP180;8594;52.052;8.354;2023-07-31T06:21:45;99908.00;;;19.50
16956;BMP180;8594;52.052;8.354;2023-07-31T06:24:12;99904.00;;;19.40
16956;BMP180;8594;52.052;8.354;2023-07-31T06:26:44;99915.00;;;18.90
16956;BMP180;8594;52.052;8.354;2023-07-31T06:29:11;99905.00;;;18.90
16956;BMP180;8594;52.052;8.354;2023-07-31T06:31:38;99909.00;;;19.10
16956;BMP180;8594;52.052;8.354;2023-07-31T06:34:06;99888.00;;;19.10
16956;BMP180;8594;52.052;8.354;2023-07-31T06:36:33;99883.00;;;19.30
16956;BMP180;8594;52.052;8.354;2023-07-31T06:39:00;99884.00;;;19.20
16956;BMP180;8594;52.052;8.354;2023-07-31T06:41:27;99890.00;;;19.50
16956;BMP180;8594;52.052;8.354;2023-07-31T06:43:53;99883.00;;;19.40
16956;BMP180;8594;52.052;8.354;2023-07-31T06:46:20;99876.00;;;19.60
16956;BMP180;8594;52.052;8.354;2023-07-31T06:48:47;99888.00;;;19.70
16956;BMP180;8594;52.052;8.354;2023-07-31T06:51:16;99880.00;;;19.80
16956;BMP180;8594;52.052;8.354;2023-07-31T06:53:43;99880.00;;;19.40
16956;BMP180;8594;52.052;8.354;2023-07-31T06:56:11;99878.00;;;19.70
16956;BMP180;8594;52.052;8.354;2023-07-31T06:58:38;99879.00;;;19.50
16956;BMP180;8594;52.052;8.354;2023-07-31T07:01:05;99883.00;;;19.50
16956;BMP180;8594;52.052;8.354;2023-07-31T07:03:32;99880.00;;;19.60
16956;BMP180;8594;52.052;8.354;2023-07-31T07:05:59;99880.00;;;19.60
16956;BMP180;8594;52.052;8.354;2023-07-31T07:08:28;99883.00;;;19.60
16956;BMP180;8594;52.052;8.354;2023-07-31T07:10:54;99890.00;;;19.50
16956;BMP180;8594;52.052;8.354;2023-07-31T07:15:53;99896.00;;;19.80
16956;BMP180;8594;52.052;8.354;2023-07-31T07:18:20;99892.00;;;19.90
16956;BMP180;8594;52.052;8.354;2023-07-31T07:20:49;99901.00;;;19.70
16956;BMP180;8594;52.052;8.354;2023-07-31T07:23:16;99900.00;;;19.80
16956;BMP180;8594;52.052;8.354;2023-07-31T07:25:44;99893.00;;;19.60
16956;BMP180;8594;52.052;8.354;2023-07-31T07:28:11;99889.00;;;19.70
16956;BMP180;8594;52.052;8.354;2023-07-31T07:30:38;99894.00;;;19.60
16956;BMP180;8594;52.052;8.354;2023-07-31T07:33:06;99890.00;;;19.70
16956;BMP180;8594;52.052;8.354;2023-07-31T07:35:34;99886.00;;;19.70
16956;BMP180;8594;52.052;8.354;2023-07-31T07:38:02;99872.00;;;19.80
16956;BMP180;8594;52.052;8.354;2023-07-31T07:40:29;99868.00;;;20.00
16956;BMP180;8594;52.052;8.354;2023-07-31T07:42:56;99869.00;;;19.70
16956;BMP180;8594;52.052;8.354;2023-07-31T07:45:23;99870.00;;;19.70
16956;BMP180;8594;52.052;8.354;2023-07-31T07:47:50;99862.00;;;19.50
16956;BMP180;8594;52.052;8.354;2023-07-31T07:50:18;99854.00;;;19.50
16956;BMP180;8594;52.052;8.354;2023-07-31T07:52:46;99858.00;;;19.50
16956;BMP180;8594;52.052;8.354;2023-07-31T07:55:12;99860.00;;;19.80
16956;BMP180;8594;52.052;8.354;2023-07-31T07:57:39;99861.00;;;19.90
16956;BMP180;8594;52.052;8.354;2023-07-31T08:00:07;99868.00;;;19.60
16956;BMP180;8594;52.052;8.354;2023-07-31T08:02:36;99859.00;;;19.50
16956;BMP180;8594;52.052;8.354;2023-07-31T08:05:03;99862.00;;;19.70
16956;BMP180;8594;52.052;8.354;2023-07-31T08:07:31;99862.00;;;19.70
16956;BMP180;8594;52.052;8.354;2023-07-31T08:09:58;99862.00;;;19.70
16956;BMP180;8594;52.052;8.354;2023-07-31T08:12:25;99862.00;;;19.80
16956;BMP180;8594;52.052;8.354;2023-07-31T08:14:52;99843.00;;;19.90
16956;BMP180;8594;52.052;8.354;2023-07-31T08:17:19;99839.00;;;19.70
16956;BMP180;8594;52.052;8.354;2023-07-31T08:19:45;99837.00;;;19.70
16956;BMP180;8594;52.052;8.354;2023-07-31T08:22:12;99823.00;;;19.70
16956;BMP180;8594;52.052;8.354;2023-07-31T08:24:41;99822.00;;;19.90
16956;BMP180;8594;52.052;8.354;2023-07-31T08:27:08;99823.00;;;19.90
16956;BMP180;8594;52.052;8.354;2023-07-31T08:29:35;99819.00;;;20.10
16956;BMP180;8594;52.052;8.354;2023-07-31T08:32:03;99817.00;;;20.10
16956;BMP180;8594;52.052;8.354;2023-07-31T08:34:30;99824.00;;;20.30
16956;BMP180;8594;52.052;8.354;2023-07-31T08:36:56;99813.00;;;20.00
16956;BMP180;8594;52.052;8.354;2023-07-31T08:39:23;99807.00;;;20.10
16956;BMP180;8594;52.052;8.354;2023-07-31T08:41:57;99808.00;;;20.10
16956;BMP180;8594;52.052;8.354;2023-07-31T08:44:24;99808.00;;;19.90
16956;BMP180;8594;52.052;8.354;2023-07-31T08:46:51;99801.00;;;19.90
16956;BMP180;8594;52.052;8.354;2023-07-31T08:49:21;99802.00;;;19.90
16956;BMP180;8594;52.052;8.354;2023-07-31T08:51:50;99803.00;;;19.90
16956;BMP180;8594;52.052;8.354;2023-07-31T08:54:17;99801.00;;;19.70
16956;BMP180;8594;52.052;8.354;2023-07-31T08:56:44;99799.00;;;20.00
16956;BMP180;8594;52.052;8.354;2023-07-31T08:59:15;99799.00;;;20.00
16956;BMP180;8594;52.052;8.354;2023-07-31T09:01:48;99801.00;;;20.10
16956;BMP180;8594;52.052;8.354;2023-07-31T09:04:18;99807.00;;;19.70
16956;BMP180;8594;52.052;8.354;2023-07-31T09:06:47;99803.00;;;19.80
16956;BMP180;8594;52.052;8.354;2023-07-31T09:09:14;99788.00;;;19.90
16956;BMP180;8594;52.052;8.354;2023-07-31T09:11:41;99798.00;;;19.90
16956;BMP180;8594;52.052;8.354;2023-07-31T09:14:10;99792.00;;;19.90
16956;BMP180;8594;52.052;8.354;2023-07-31T09:16:52;99790.00;;;20.00
16956;BMP180;8594;52.052;8.354;2023-07-31T09:19:26;99789.00;;;19.50
16956;BMP180;8594;52.052;8.354;2023-07-31T09:21:53;99790.00;;;20.00
16956;BMP180;8594;52.052;8.354;2023-07-31T09:24:28;99786.00;;;19.90
16956;BMP180;8594;52.052;8.354;2023-07-31T09:26:57;99785.00;;;20.10
16956;BMP180;8594;52.052;8.354;2023-07-31T09:29:25;99786.00;;;19.90
16956;BMP180;8594;52.052;8.354;2023-07-31T09:31:54;99783.00;;;20.10
16956;BMP180;8594;52.052;8.354;2023-07-31T09:34:29;99785.00;;;20.00
16956;BMP180;8594;52.052;8.354;2023-07-31T09:37:01;99782.00;;;20.00
16956;BMP180;8594;52.052;8.354;2023-07-31T09:39:30;99788.00;;;20.10
16956;BMP180;8594;52.052;8.354;2023-07-31T09:41:57;99785.00;;;20.00
16956;BMP180;8594;52.052;8.354;2023-07-31T09:44:38;99781.00;;;19.90
16956;BMP180;8594;52.052;8.354;2023-07-31T09:47:21;99779.00;;;19.90
16956;BMP180;8594;52.052;8.354;2023-07-31T09:49:49;99778.00;;;19.70
16956;BMP180;8594;52.052;8.354;2023-07-31T09:52:16;99780.00;;;19.50
16956;BMP180;8594;52.052;8.354;2023-07-31T09:54:43;99782.00;;;19.80
16956;BMP180;8594;52.052;8.354;2023-07-31T09:57:11;99780.00;;;20.10
16956;BMP180;8594;52.052;8.354;2023-07-31T09:59:39;99771.00;;;20.30
16956;BMP180;8594;52.052;8.354;2023-07-31T10:02:12;99770.00;;;19.90
16956;BMP180;8594;52.052;8.354;2023-07-31T10:04:43;99771.00;;;20.10
16956;BMP180;8594;52.052;8.354;2023-07-31T10:07:11;99774.00;;;20.00
16956;BMP180;8594;52.052;8.354;2023-07-31T10:09:38;99770.00;;;20.10
16956;BMP180;8594;52.052;8.354;2023-07-31T10:12:11;99768.00;;;19.60
16956;BMP180;8594;52.052;8.354;2023-07-31T10:14:40;99772.00;;;19.90
16956;BMP180;8594;52.052;8.354;2023-07-31T10:17:09;99775.00;;;19.70
16956;BMP180;8594;52.052;8.354;2023-07-31T10:19:37;99770.00;;;19.40
16956;BMP180;8594;52.052;8.354;2023-07-31T10:22:05;99771.00;;;19.70
16956;BMP180;8594;52.052;8.354;2023-07-31T10:24:32;99776.00;;;19.70
16956;BMP180;8594;52.052;8.354;2023-07-31T10:27:02;99769.00;;;19.90
16956;BMP180;8594;52.052;8.354;2023-07-31T10:29:29;99769.00;;;19.90
16956;BMP180;8594;52.052;8.354;2023-07-31T10:31:58;99768.00;;;20.00
16956;BMP180;8594;52.052;8.354;2023-07-31T10:34:27;99767.00;;;20.00
16956;BMP180;8594;52.052;8.354;2023-07-31T10:37:19;99756.00;;;20.00
16956;BMP180;8594;52.052;8.354;2023-07-31T10:39:59;99760.00;;;19.70
16956;BMP180;8594;52.052;8.354;2023-07-31T10:42:31;99755.00;;;19.80
16956;BMP180;8594;52.052;8.354;2023-07-31T10:45:02;99762.00;;;19.80
16956;BMP180;8594;52.052;8.354;2023-07-31T10:47:29;99756.00;;;19.30
16956;BMP180;8594;52.052;8.354;2023-07-31T10:50:16;99743.00;;;19.80
16956;BMP180;8594;52.052;8.354;2023-07-31T10:52:47;99767.00;;;19.80
16956;BMP180;8594;52.052;8.354;2023-07-31T10:55:23;99754.00;;;19.80
16956;BMP180;8594;52.052;8.354;2023-07-31T10:57:50;99744.00;;;19.80
16956;BMP180;8594;52.052;8.354;2023-07-31T11:00:24;99748.00;;;19.90
16956;BMP180;8594;52.052;8.354;2023-07-31T11:02:59;99738.00;;;19.90
16956;BMP180;8594;52.052;8.354;2023-07-31T11:05:44;99738.00;;;19.90
16956;BMP180;8594;52.052;8.354;2023-07-31T11:08:13;99743.00;;;19.80
16956;BMP180;8594;52.052;8.354;2023-07-31T11:10:42;99739.00;;;19.90
16956;BMP180;8594;52.052;8.354;2023-07-31T11:13:09;99743.00;;;20.20
16956;BMP180;8594;52.052;8.354;2023-07-31T11:15:36;99741.00;;;20.10
16956;BMP180;8594;52.052;8.354;2023-07-31T11:18:03;99740.00;;;19.90
16956;BMP180;8594;52.052;8.354;2023-07-31T11:20:32;99743.00;;;19.90
16956;BMP180;8594;52.052;8.354;2023-07-31T11:23:03;99742.00;;;19.80
16956;BMP180;8594;52.052;8.354;2023-07-31T11:25:31;99737.00;;;20.00
16956;BMP180;8594;52.052;8.354;2023-07-31T11:28:04;99737.00;;;20.10
16956;BMP180;8594;52.052;8.354;2023-07-31T11:30:31;99735.00;;;20.10
16956;BMP180;8594;52.052;8.354;2023-07-31T11:32:57;99736.00;;;20.10
16956;BMP180;8594;52.052;8.354;2023-07-31T11:35:24;99734.00;;;20.20
16956;BMP180;8594;52.052;8.354;2023-07-31T11:37:51;99735.00;;;19.60
16956;BMP180;8594;52.052;8.354;2023-07-31T11:40:20;99729.00;;;19.50
16956;BMP180;8594;52.052;8.354;2023-07-31T11:42:46;99733.00;;;19.60
16956;BMP180;8594;52.052;8.354;2023-07-31T11:45:13;99721.00;;;19.70
16956;BMP180;8594;52.052;8.354;2023-07-31T11:47:40;99723.00;;;19.70
16956;BMP180;8594;52.052;8.354;2023-07-31T11:50:11;99730.00;;;20.20
16956;BMP180;8594;52.052;8.354;2023-07-31T11:52:43;99726.00;;;19.80
16956;BMP180;8594;52.052;8.354;2023-07-31T11:55:12;99730.00;;;20.00
16956;BMP180;8594;52.052;8.354;2023-07-31T11:57:43;99729.00;;;19.90
16956;BMP180;8594;52.052;8.354;2023-07-31T12:00:14;99718.00;;;19.60
16956;BMP180;8594;52.052;8.354;2023-07-31T12:02:42;99718.00;;;19.70
16956;BMP180;8594;52.052;8.354;2023-07-31T12:05:11;99718.00;;;19.50
16956;BMP180;8594;52.052;8.354;2023-07-31T12:07:47;99727.00;;;19.50
16956;BMP180;8594;52.052;8.354;2023-07-31T12:10:29;99719.00;;;19.90
16956;BMP180;8594;52.052;8.354;2023-07-31T12:13:00;99714.00;;;19.80
16956;BMP180;8594;52.052;8.354;2023-07-31T12:15:35;99707.00;;;19.90
16956;BMP180;8594;52.052;8.354;2023-07-31T12:18:09;99709.00;;;19.80
16956;BMP180;8594;52.052;8.354;2023-07-31T12:20:41;99712.00;;;20.30
16956;BMP180;8594;52.052;8.354;2023-07-31T12:23:14;99704.00;;;20.20
16956;BMP180;8594;52.052;8.354;2023-07-31T12:25:41;99708.00;;;20.00
16956;BMP180;8594;52.052;8.354;2023-07-31T12:28:10;99708.00;;;20.50
16956;BMP180;8594;52.052;8.354;2023-07-31T12:30:41;99716.00;;;20.40
16956;BMP180;8594;52.052;8.354;2023-07-31T12:33:14;99701.00;;;20.60
16956;BMP180;8594;52.052;8.354;2023-07-31T12:35:46;99721.00;;;20.70
16956;BMP180;8594;52.052;8.354;2023-07-31T12:38:13;99713.00;;;20.60
16956;BMP180;8594;52.052;8.354;2023-07-31T12:40:41;99714.00;;;20.50
16956;BMP180;8594;52.052;8.354;2023-07-31T12:43:10;99714.00;;;20.30
16956;BMP180;8594;52.052;8.354;2023-07-31T12:45:36;99706.00;;;20.50
16956;BMP180;8594;52.052;8.354;2023-07-31T12:48:04;99716.00;;;20.50
16956;BMP180;8594;52.052;8.354;2023-07-31T12:50:31;99718.00;;;20.30
16956;BMP180;8594;52.052;8.354;2023-07-31T12:52:58;99704.00;;;20.50
16956;BMP180;8594;52.052;8.354;2023-07-31T12:55:25;99705.00;;;20.20
16956;BMP180;8594;52.052;8.354;2023-07-31T12:57:53;99699.00;;;19.90
16956;BMP180;8594;52.052;8.354;2023-07-31T13:00:21;99703.00;;;20.30
16956;BMP180;8594;52.052;8.354;2023-07-31T13:02:48;99696.00;;;20.60
16956;BMP180;8594;52.052;8.354;2023-07-31T13:05:15;99699.00;;;20.60
16956;BMP180;8594;52.052;8.354;2023-07-31T13:07:42;99688.00;;;20.90
16956;BMP180;8594;52.052;8.354;2023-07-31T13:10:09;99689.00;;;20.70
16956;BMP180;8594;52.052;8.354;2023-07-31T13:12:36;99696.00;;;20.80
16956;BMP180;8594;52.052;8.354;2023-07-31T13:15:04;99688.00;;;20.90
16956;BMP180;8594;52.052;8.354;2023-07-31T13:17:33;99691.00;;;20.70
16956;BMP180;8594;52.052;8.354;2023-07-31T13:20:00;99688.00;;;20.50
16956;BMP180;8594;52.052;8.354;2023-07-31T13:22:27;99682.00;;;21.00
16956;BMP180;8594;52.052;8.354;2023-07-31T13:24:54;99681.00;;;20.90
16956;BMP180;8594;52.052;8.354;2023-07-31T13:27:20;99670.00;;;20.60
16956;BMP180;8594;52.052;8.354;2023-07-31T13:29:47;99678.00;;;20.50
16956;BMP180;8594;52.052;8.354;2023-07-31T13:32:16;99676.00;;;20.90
16956;BMP180;8594;52.052;8.354;2023-07-31T13:34:44;99667.00;;;20.80
16956;BMP180;8594;52.052;8.354;2023-07-31T13:37:12;99667.00;;;20.80
16956;BMP180;8594;52.052;8.354;2023-07-31T13:39:39;99654.00;;;21.10
16956;BMP180;8594;52.052;8.354;2023-07-31T13:42:08;99655.00;;;21.10
16956;BMP180;8594;52.052;8.354;2023-07-31T13:44:37;99664.00;;;21.10
16956;BMP180;8594;52.052;8.354;2023-07-31T13:47:05;99657.00;;;20.90
16956;BMP180;8594;52.052;8.354;2023-07-31T13:49:33;99652.00;;;21.00
16956;BMP180;8594;52.052;8.354;2023-07-31T13:52:02;99665.00;;;21.20
16956;BMP180;8594;52.052;8.354;2023-07-31T13:54:29;99652.00;;;21.10
16956;BMP180;8594;52.052;8.354;2023-07-31T13:56:56;99657.00;;;21.00
16956;BMP180;8594;52.052;8.354;2023-07-31T13:59:23;99653.00;;;21.20
16956;BMP180;8594;52.052;8.354;2023-07-31T14:01:50;99636.00;;;20.90
16956;BMP180;8594;52.052;8.354;2023-07-31T14:04:18;99635.00;;;20.90
16956;BMP180;8594;52.052;8.354;2023-07-31T14:06:45;99634.00;;;21.10
16956;BMP180;8594;52.052;8.354;2023-07-31T14:09:14;99638.00;;;21.10
16956;BMP180;8594;52.052;8.354;2023-07-31T14:11:43;99640.00;;;21.10
16956;BMP180;8594;52.052;8.354;2023-07-31T14:14:10;99633.00;;;21.00
16956;BMP180;8594;52.052;8.354;2023-07-31T14:16:38;99641.00;;;21.30
16956;BMP180;8594;52.052;8.354;2023-07-31T14:19:05;99637.00;;;21.40
16956;BMP180;8594;52.052;8.354;2023-07-31T14:21:33;99642.00;;;21.10
16956;BMP180;8594;52.052;8.354;2023-07-31T14:24:00;99654.00;;;21.20
16956;BMP180;8594;52.052;8.354;2023-07-31T14:26:28;99659.00;;;21.10
16956;BMP180;8594;52.052;8.354;2023-07-31T14:28:55;99670.00;;;21.00